createdAt,value
2017-05-30T00:00:03.365Z,412
2017-05-30T00:01:05.715Z,360
2017-05-30T00:02:08.454Z,324
2017-05-30T00:03:11.419Z,196
2017-05-30T00:04:16.340Z,184
2017-05-30T00:05:18.717Z,164
2017-05-30T00:06:21.611Z,120
2017-05-30T00:07:23.928Z,112
2017-05-30T00:08:26.829Z,64
2017-05-30T00:09:29.908Z,68
2017-05-30T00:10:32.896Z,64
2017-05-30T00:11:35.483Z,48
2017-05-30T00:12:37.839Z,36
2017-05-30T00:13:40.206Z,28
2017-05-30T00:14:43.173Z,24
2017-05-30T00:15:45.538Z,16
2017-05-30T00:16:47.939Z,12
2017-05-30T00:17:50.393Z,12
2017-05-30T00:18:52.690Z,8
2017-05-30T00:19:57.556Z,4
2017-05-30T00:20:59.842Z,4
2017-05-30T00:22:02.970Z,0
2017-05-30T00:23:05.882Z,4
2017-05-30T00:24:11.937Z,4
2017-05-30T00:25:14.822Z,0
2017-05-30T00:26:17.964Z,0
2017-05-30T00:27:19.721Z,0
2017-05-30T00:28:22.588Z,0
2017-05-30T00:29:24.957Z,0
2017-05-30T00:31:28.715Z,0
2017-05-30T00:32:32.838Z,0
2017-05-30T00:33:35.687Z,0
2017-05-30T00:34:38.073Z,0
2017-05-30T00:35:41.019Z,0
2017-05-30T00:36:43.928Z,0
2017-05-30T00:37:46.287Z,0
2017-05-30T00:38:48.658Z,0
2017-05-30T00:39:51.018Z,0
2017-05-30T00:40:53.408Z,0
2017-05-30T00:41:56.375Z,0
2017-05-30T00:42:58.757Z,0
2017-05-30T14:42:45.549Z,35040
2017-05-30T14:43:47.883Z,26048
2017-05-30T14:44:50.550Z,31232
2017-05-30T14:47:04.126Z,47456
2017-05-30T14:48:09.881Z,28896
2017-05-30T14:49:12.415Z,25728
2017-05-30T14:50:14.955Z,57024
2017-05-30T14:51:17.510Z,29472
2017-05-30T14:52:19.903Z,32064
2017-05-30T14:53:22.916Z,36992
2017-05-30T14:54:25.290Z,34560
2017-05-30T14:55:27.675Z,41376
2017-05-30T14:56:30.056Z,34464
2017-05-30T14:57:32.397Z,31392
2017-05-30T14:58:35.363Z,24768
2017-05-30T14:59:37.687Z,25952
2017-05-30T15:00:40.095Z,29248
2017-05-30T15:01:42.471Z,32160
2017-05-30T15:02:44.823Z,39488
2017-05-30T15:03:47.805Z,39456
2017-05-30T15:04:50.141Z,28032
2017-05-30T15:05:52.530Z,74112
2017-05-30T15:06:54.898Z,26624
2017-05-30T15:07:57.274Z,19264
2017-05-30T15:09:00.243Z,44576
2017-05-30T15:10:03.025Z,48768
2017-05-30T15:11:05.499Z,46144
2017-05-30T15:12:07.934Z,25312
2017-05-30T15:13:10.205Z,29152
2017-05-30T15:14:13.445Z,30624
2017-05-30T15:15:15.790Z,19040
2017-05-30T15:16:18.377Z,21664
2017-05-30T15:17:20.746Z,33920
2017-05-30T15:18:23.329Z,27072
2017-05-30T15:19:26.402Z,23712
2017-05-30T15:20:28.742Z,39968
2017-05-30T15:21:31.075Z,35776
2017-05-30T15:22:33.571Z,29760
2017-05-30T15:23:35.811Z,36832
2017-05-30T15:24:38.843Z,31072
2017-05-30T15:25:41.211Z,45408
2017-05-30T15:26:43.595Z,37216
2017-05-30T15:27:45.932Z,45632
2017-05-30T15:28:48.299Z,36960
2017-05-30T15:29:51.237Z,43168
2017-05-30T15:30:53.602Z,45632
2017-05-30T15:31:55.878Z,31360
2017-05-30T15:32:58.376Z,58528
2017-05-30T15:34:00.711Z,51712
2017-05-30T15:35:04.965Z,109984
2017-05-30T15:36:06.512Z,105952
2017-05-30T15:37:09.090Z,46688
2017-05-30T15:38:11.438Z,94816
2017-05-30T15:39:13.845Z,67104
2017-05-30T15:40:16.910Z,40224
2017-05-30T15:41:19.281Z,90752
2017-05-30T15:42:21.612Z,86592
2017-05-30T15:43:24.005Z,25696
2017-05-30T15:44:26.375Z,32544
2017-05-30T15:45:29.525Z,55904
2017-05-30T15:46:31.898Z,102208
2017-05-30T15:47:34.283Z,49760
2017-05-30T15:48:36.639Z,51840
2017-05-30T15:49:39.017Z,68320
2017-05-30T15:51:46.564Z,95552
2017-05-30T15:52:49.086Z,73984
2017-05-30T15:53:51.496Z,51968
2017-05-30T15:54:53.877Z,62432
2017-05-30T15:55:56.975Z,126144
2017-05-30T15:56:59.382Z,49248
2017-05-30T15:58:01.738Z,57280
2017-05-30T15:59:04.117Z,43040
2017-05-30T16:00:06.402Z,46656
2017-05-30T16:01:09.615Z,35840
2017-05-30T16:02:11.805Z,28128
2017-05-30T16:03:14.366Z,30784
2017-05-30T16:04:16.758Z,36384
2017-05-30T16:05:19.195Z,40608
2017-05-30T16:06:22.136Z,42944
2017-05-30T16:07:24.490Z,41344
2017-05-30T16:08:27.069Z,32672
2017-05-30T16:09:29.455Z,38656
2017-05-30T16:10:31.833Z,59296
2017-05-30T16:11:34.902Z,53440
2017-05-30T16:12:37.278Z,51744
2017-05-30T16:13:40.830Z,52608
2017-05-30T16:14:43.205Z,57600
2017-05-30T16:15:45.573Z,47456
2017-05-30T16:16:48.651Z,59008
2017-05-30T16:17:51.026Z,71584
2017-05-30T16:18:53.372Z,57312
2017-05-30T16:19:55.768Z,47040
2017-05-30T16:20:58.135Z,86272
2017-05-30T16:22:01.111Z,38368
2017-05-30T16:23:03.494Z,52896
2017-05-30T16:24:05.852Z,52928
2017-05-30T16:25:08.236Z,45760
2017-05-30T16:26:10.605Z,43072
2017-05-30T16:27:13.413Z,48384
2017-05-30T16:28:15.878Z,55296
2017-05-30T16:29:18.265Z,59264
2017-05-30T16:30:20.619Z,35360
2017-05-30T16:31:23.010Z,35872
2017-05-30T16:32:26.069Z,33824
2017-05-30T16:33:28.473Z,44576
2017-05-30T16:34:30.812Z,62496
2017-05-30T16:35:33.201Z,95872
2017-05-30T16:36:35.485Z,98848
2017-05-30T16:37:38.694Z,78560
2017-05-30T16:38:41.072Z,68320
2017-05-30T16:39:43.399Z,66048
2017-05-30T16:40:45.807Z,55712
2017-05-30T16:41:48.188Z,29024
2017-05-30T16:42:51.097Z,34048
2017-05-30T16:43:53.513Z,43552
2017-05-30T16:44:55.932Z,37600
2017-05-30T16:45:58.307Z,61408
2017-05-30T16:47:00.672Z,61888
2017-05-30T16:48:03.757Z,28992
2017-05-30T16:49:06.124Z,48000
2017-05-30T16:50:08.489Z,33024
2017-05-30T16:51:10.851Z,40800
2017-05-30T16:52:13.225Z,52576
2017-05-30T16:53:16.389Z,76608
2017-05-30T16:54:18.697Z,81312
2017-05-30T16:55:21.096Z,67616
2017-05-30T16:56:23.475Z,67520
2017-05-30T16:57:26.047Z,58432
2017-05-30T16:58:28.973Z,51872
2017-05-30T16:59:31.342Z,57280
2017-05-30T17:00:33.748Z,52000
2017-05-30T17:01:36.110Z,82400
2017-05-30T17:02:38.465Z,101824
2017-05-30T17:03:42.647Z,90016
2017-05-30T17:04:45.010Z,97952
2017-05-30T17:05:48.596Z,95424
2017-05-30T17:06:50.957Z,92672
2017-05-30T17:07:53.337Z,107808
2017-05-30T17:08:56.443Z,133664
2017-05-30T17:09:58.814Z,121664
2017-05-30T17:11:01.171Z,26944
2017-05-30T17:12:03.562Z,122304
2017-05-30T17:13:05.929Z,124832
2017-05-30T17:14:08.868Z,108416
2017-05-30T17:15:11.341Z,105792
2017-05-30T17:16:13.626Z,90464
2017-05-30T17:17:16.001Z,120992
2017-05-30T17:18:18.268Z,122912
2017-05-30T17:19:21.491Z,51392
2017-05-30T17:20:23.877Z,141440
2017-05-30T17:21:26.221Z,100192
2017-05-30T17:22:28.606Z,116736
2017-05-30T17:23:30.992Z,135616
2017-05-30T17:24:33.937Z,131232
2017-05-30T17:25:36.359Z,130240
2017-05-30T17:26:38.716Z,45792
2017-05-30T17:27:41.086Z,64064
2017-05-30T17:28:43.506Z,147520
2017-05-30T17:29:46.439Z,154560
2017-05-30T17:30:48.817Z,60000
2017-05-30T17:31:51.208Z,37120
2017-05-30T17:32:53.583Z,42976
2017-05-30T17:33:55.945Z,90688
2017-05-30T17:34:58.898Z,45408
2017-05-30T17:36:01.298Z,40128
2017-05-30T17:37:03.665Z,40768
2017-05-30T17:38:06.058Z,66208
2017-05-30T17:39:08.315Z,59552
2017-05-30T17:40:11.401Z,54496
2017-05-30T17:41:13.755Z,50176
2017-05-30T17:42:16.265Z,62272
2017-05-30T17:43:18.506Z,100256
2017-05-30T17:44:20.902Z,65408
2017-05-30T17:45:24.410Z,52416
2017-05-30T17:46:26.766Z,41728
2017-05-30T17:47:29.854Z,54464
2017-05-30T17:48:31.973Z,55264
2017-05-30T17:49:36.080Z,78464
2017-05-30T17:50:39.097Z,59872
2017-05-30T17:51:41.774Z,74144
2017-05-30T17:52:45.105Z,71968
2017-05-30T17:53:47.752Z,61760
2017-05-30T17:54:51.376Z,65824
2017-05-30T17:55:54.251Z,57568
2017-05-30T17:56:57.120Z,89408
2017-05-30T17:57:59.987Z,85600
2017-05-30T17:59:02.857Z,54560
2017-05-30T18:00:06.712Z,52960
2017-05-30T18:01:10.336Z,100864
2017-05-30T18:02:13.209Z,120864
2017-05-30T18:03:16.175Z,77120
2017-05-30T18:04:19.005Z,59552
2017-05-30T18:05:21.979Z,74752
2017-05-30T18:06:25.050Z,86272
2017-05-30T18:07:28.052Z,116576
2017-05-30T18:08:31.488Z,128160
2017-05-30T18:09:34.191Z,103008
2017-05-30T18:10:37.115Z,122688
2017-05-30T18:11:40.341Z,68032
2017-05-30T18:12:42.694Z,64032
2017-05-30T18:13:45.084Z,54912
2017-05-30T18:14:48.096Z,143648
2017-05-30T18:15:50.835Z,150784
2017-05-30T18:16:53.994Z,147680
2017-05-30T18:17:56.548Z,87168
2017-05-30T18:18:58.948Z,128352
2017-05-30T18:20:01.805Z,103040
2017-05-30T18:21:04.679Z,146720
2017-05-30T18:22:07.830Z,55136
2017-05-30T18:23:10.279Z,160160
2017-05-30T18:24:12.635Z,51712
2017-05-30T18:25:15.499Z,75392
2017-05-30T18:26:18.374Z,117280
2017-05-30T18:27:21.362Z,51392
2017-05-30T18:28:23.733Z,104416
2017-05-30T18:29:26.112Z,97088
2017-05-30T18:30:28.495Z,78496
2017-05-30T18:31:30.856Z,78528
2017-05-30T18:32:34.066Z,77728
2017-05-30T18:33:36.272Z,76832
2017-05-30T18:34:38.756Z,44736
2017-05-30T18:35:41.122Z,76832
2017-05-30T18:36:43.557Z,114784
2017-05-30T18:37:46.538Z,63136
2017-05-30T18:38:48.839Z,44288
2017-05-30T18:39:51.301Z,48768
2017-05-30T18:40:53.679Z,54368
2017-05-30T18:41:56.049Z,45184
2017-05-30T18:42:58.933Z,53728
2017-05-30T18:44:01.417Z,96288
2017-05-30T18:45:03.796Z,125792
2017-05-30T18:46:06.157Z,75744
2017-05-30T18:47:08.601Z,85952
2017-05-30T18:48:11.872Z,57600
2017-05-30T18:49:14.381Z,148192
2017-05-30T18:50:16.895Z,52480
2017-05-30T18:51:19.342Z,38944
2017-05-30T18:52:22.123Z,62624
2017-05-30T18:53:25.026Z,56832
2017-05-30T18:54:27.659Z,60320
2017-05-30T18:55:30.184Z,48480
2017-05-30T18:56:32.694Z,52640
2017-05-30T18:57:35.203Z,49536
2017-05-30T18:58:38.332Z,57856
2017-05-30T18:59:40.599Z,67744
2017-05-30T19:00:42.975Z,42496
2017-05-30T19:01:45.248Z,40256
2017-05-30T19:02:47.833Z,36704
2017-05-30T19:03:50.794Z,44928
2017-05-30T19:04:53.204Z,73920
2017-05-30T19:05:55.590Z,92256
2017-05-30T19:06:57.929Z,55456
2017-05-30T19:08:00.345Z,36128
2017-05-30T19:09:03.288Z,37472
2017-05-30T19:10:05.586Z,41088
2017-05-30T19:11:08.035Z,48192
2017-05-30T19:12:10.416Z,59904
2017-05-30T19:13:12.771Z,74912
2017-05-30T19:14:15.760Z,56416
2017-05-30T19:15:18.059Z,55680
2017-05-30T19:16:20.562Z,75936
2017-05-30T19:17:22.961Z,69728
2017-05-30T19:18:25.314Z,115296
2017-05-30T19:19:28.296Z,47552
2017-05-30T19:20:30.645Z,32704
2017-05-30T19:21:33.221Z,26016
2017-05-30T19:22:35.633Z,28000
2017-05-30T19:23:38.185Z,29248
2017-05-30T19:24:41.127Z,32096
2017-05-30T19:25:43.419Z,44800
2017-05-30T19:26:45.969Z,55104
2017-05-30T19:27:48.276Z,38400
2017-05-30T19:28:50.861Z,41760
2017-05-30T19:29:53.996Z,34144
2017-05-30T19:30:56.387Z,38208
2017-05-30T19:31:58.967Z,47712
2017-05-30T19:33:01.361Z,39584
2017-05-30T19:34:03.728Z,40128
2017-05-30T19:35:06.680Z,44288
2017-05-30T19:36:09.068Z,61984
2017-05-30T19:37:11.447Z,70880
2017-05-30T19:38:13.824Z,54048
2017-05-30T19:39:16.193Z,51104
2017-05-30T19:40:19.176Z,31200
2017-05-30T19:41:21.542Z,28064
2017-05-30T19:42:23.921Z,29728
2017-05-30T19:43:26.490Z,32288
2017-05-30T19:44:28.876Z,33632
2017-05-30T19:45:34.942Z,50208
2017-05-30T19:46:37.347Z,53472
2017-05-30T19:47:39.724Z,50944
2017-05-30T19:48:42.090Z,47744
2017-05-30T19:49:44.494Z,48288
2017-05-30T19:50:47.638Z,52992
2017-05-30T19:51:50.018Z,52160
2017-05-30T19:52:52.401Z,41280
2017-05-30T19:53:54.796Z,40384
2017-05-30T19:54:57.199Z,54176
2017-05-30T19:56:00.132Z,124512
2017-05-30T19:57:02.508Z,71936
2017-05-30T19:58:04.937Z,57376
2017-05-30T19:59:07.265Z,77952
2017-05-30T20:00:09.651Z,88704
2017-05-30T20:01:12.751Z,95904
2017-05-30T20:02:15.021Z,91680
2017-05-30T20:03:17.391Z,86816
2017-05-30T20:04:19.987Z,74816
2017-05-30T20:05:22.376Z,69696
2017-05-30T20:06:25.315Z,112992
2017-05-30T20:07:27.711Z,76800
2017-05-30T20:08:30.129Z,81248
2017-05-30T20:09:32.709Z,93088
2017-05-30T20:10:35.095Z,107840
2017-05-30T20:11:38.181Z,47808
2017-05-30T20:12:40.551Z,48032
2017-05-30T20:13:43.026Z,65728
2017-05-30T20:14:45.363Z,51040
2017-05-30T20:15:47.761Z,50944
2017-05-30T20:16:50.679Z,54336
2017-05-30T20:17:53.070Z,84448
2017-05-30T20:18:55.460Z,44576
2017-05-30T20:19:57.814Z,35424
2017-05-30T20:21:00.207Z,63456
2017-05-30T20:22:03.224Z,71616
2017-05-30T20:23:05.658Z,48992
2017-05-30T20:24:07.952Z,41248
2017-05-30T20:25:10.335Z,45376
2017-05-30T20:26:12.708Z,44768
2017-05-30T20:27:15.672Z,61184
2017-05-30T20:28:18.255Z,63136
2017-05-30T20:29:20.701Z,62400
2017-05-30T20:30:22.968Z,57952
2017-05-30T20:31:25.628Z,57568
2017-05-30T20:32:28.580Z,76544
2017-05-30T20:33:30.938Z,56512
2017-05-30T20:34:33.333Z,58912
2017-05-30T20:35:35.691Z,109280
2017-05-30T20:36:38.374Z,69760
2017-05-30T20:37:41.615Z,119744
2017-05-30T20:38:43.941Z,67488
2017-05-30T20:39:46.428Z,74112
2017-05-30T20:40:48.917Z,75616
2017-05-30T20:41:51.296Z,74560
2017-05-30T20:42:54.356Z,57056
2017-05-30T20:43:57.199Z,76416
2017-05-30T20:44:59.302Z,92128
2017-05-30T20:46:01.639Z,35552
2017-05-30T20:47:04.125Z,60768
2017-05-30T20:48:07.422Z,32352
2017-05-30T20:49:09.783Z,47328
2017-05-30T20:50:12.127Z,116128
2017-05-30T20:51:14.489Z,113472
2017-05-30T20:52:16.869Z,114848
2017-05-30T20:53:21.995Z,116736
2017-05-30T20:54:24.379Z,63712
2017-05-30T20:55:26.760Z,65952
2017-05-30T20:56:29.146Z,25536
2017-05-30T20:57:31.543Z,31168
2017-05-30T20:58:34.464Z,109984
2017-05-30T20:59:36.907Z,38368
2017-05-30T21:00:39.254Z,27776
2017-05-30T21:01:41.698Z,34528
2017-05-30T21:02:44.011Z,112992
2017-05-30T21:03:47.149Z,101056
2017-05-30T21:04:49.532Z,84928
2017-05-30T21:05:51.922Z,20512
2017-05-30T21:06:54.325Z,22592
2017-05-30T21:07:56.770Z,55552
2017-05-30T21:08:59.863Z,112032
2017-05-30T21:10:02.357Z,46976
2017-05-30T21:11:04.619Z,41728
2017-05-30T21:12:07.016Z,32928
2017-05-30T21:13:09.435Z,38432
2017-05-30T21:14:12.859Z,103616
2017-05-30T21:15:15.262Z,48000
2017-05-30T21:16:17.631Z,84544
2017-05-30T21:17:20.062Z,42528
2017-05-30T21:18:22.430Z,101248
2017-05-30T21:19:25.444Z,91328
2017-05-30T21:20:27.756Z,50048
2017-05-30T21:21:30.135Z,31232
2017-05-30T21:22:32.521Z,37536
2017-05-30T21:23:34.883Z,43840
2017-05-30T21:24:37.859Z,129536
2017-05-30T21:25:40.281Z,27872
2017-05-30T21:26:42.625Z,54240
2017-05-30T21:27:44.974Z,47040
2017-05-30T21:28:47.629Z,32640
2017-05-30T21:29:50.636Z,23040
2017-05-30T21:30:53.694Z,68864
2017-05-30T21:31:56.336Z,33984
2017-05-30T21:32:58.692Z,25568
2017-05-30T21:34:01.162Z,28416
2017-05-30T21:35:04.035Z,90336
2017-05-30T21:36:06.696Z,97504
2017-05-30T21:37:08.938Z,17228
2017-05-30T21:38:11.351Z,46112
2017-05-30T21:39:13.778Z,40608
2017-05-30T21:40:16.643Z,23456
2017-05-30T21:41:19.067Z,21856
2017-05-30T21:42:21.616Z,28288
2017-05-30T21:43:24.034Z,33952
2017-05-30T21:44:26.713Z,22656
2017-05-30T21:45:30.019Z,22208
2017-05-30T21:46:32.294Z,9784
2017-05-30T21:47:34.901Z,7956
2017-05-30T21:48:37.438Z,10468
2017-05-30T21:49:39.788Z,11228
2017-05-30T21:50:42.749Z,13604
2017-05-30T21:51:45.661Z,15824
2017-05-30T21:52:48.023Z,19680
2017-05-30T21:53:50.356Z,24960
2017-05-30T21:54:52.772Z,24032
2017-05-30T21:55:56.294Z,27136
2017-05-30T21:56:59.205Z,24896
2017-05-30T21:58:01.484Z,26112
2017-05-30T21:59:03.991Z,24832
2017-05-30T22:00:06.273Z,21952
2017-05-30T22:01:09.237Z,19392
2017-05-30T22:02:11.537Z,18624
2017-05-30T22:03:13.901Z,19232
2017-05-30T22:04:16.290Z,20928
2017-05-30T22:05:18.651Z,22720
2017-05-30T22:06:21.812Z,25856
2017-05-30T22:07:24.218Z,26112
2017-05-30T22:08:26.513Z,26944
2017-05-30T22:09:28.988Z,27904
2017-05-30T22:10:31.429Z,31040
2017-05-30T22:11:34.431Z,37216
2017-05-30T22:12:36.753Z,43584
2017-05-30T22:13:39.122Z,41888
2017-05-30T22:14:41.561Z,84928
2017-05-30T22:15:43.898Z,71616
2017-05-30T22:16:47.172Z,59616
2017-05-30T22:17:49.959Z,82336
2017-05-30T22:18:52.390Z,62432
2017-05-30T22:19:54.763Z,78016
2017-05-30T22:20:57.312Z,75584
2017-05-30T22:22:00.372Z,77056
2017-05-30T22:23:02.649Z,74240
2017-05-30T22:24:05.070Z,54560
2017-05-30T22:25:07.452Z,26048
2017-05-30T22:26:09.865Z,40224
2017-05-30T22:27:13.024Z,55264
2017-05-30T22:28:15.439Z,66400
2017-05-30T22:29:17.909Z,63424
2017-05-30T22:30:21.470Z,39232
2017-05-30T22:31:23.281Z,62272
2017-05-30T22:32:26.381Z,60256
2017-05-30T22:33:28.696Z,58752
2017-05-30T22:34:31.089Z,59456
2017-05-30T22:35:33.460Z,59040
2017-05-30T22:36:35.845Z,58400
2017-05-30T22:37:38.964Z,59168
2017-05-30T22:38:41.648Z,58976
2017-05-30T22:39:43.875Z,56800
2017-05-30T22:40:46.240Z,55168
2017-05-30T22:41:49.528Z,54432
2017-05-30T22:42:53.438Z,55168
2017-05-30T22:43:55.513Z,54560
2017-05-30T22:44:57.971Z,55936
2017-05-30T22:46:01.727Z,27424
2017-05-30T22:47:04.731Z,51520
2017-05-30T22:48:08.077Z,54784
2017-05-30T22:49:10.492Z,39968
2017-05-30T22:50:12.835Z,50912
2017-05-30T22:51:15.308Z,14720
2017-05-30T22:52:17.682Z,49728
2017-05-30T22:53:20.693Z,45216
2017-05-30T22:54:23.014Z,50016
2017-05-30T22:55:25.392Z,17568
2017-05-30T22:56:27.849Z,47360
2017-05-30T22:57:30.303Z,30784
2017-05-30T22:58:33.550Z,48672
2017-05-30T22:59:35.849Z,45024
2017-05-30T23:00:38.293Z,39552
2017-05-30T23:01:40.686Z,44832
2017-05-30T23:02:43.212Z,42048
2017-05-30T23:03:46.218Z,39232
2017-05-30T23:04:48.800Z,37920
2017-05-30T23:05:52.720Z,36672
2017-05-30T23:06:54.865Z,37312
2017-05-30T23:07:57.761Z,36832
2017-05-30T23:09:01.098Z,34304
2017-05-30T23:10:03.457Z,33984
2017-05-30T23:11:05.839Z,33120
2017-05-30T23:12:08.254Z,33696
2017-05-30T23:13:11.095Z,34272
2017-05-30T23:14:14.076Z,10984
2017-05-30T23:15:16.439Z,31104
2017-05-30T23:16:18.810Z,28512
2017-05-30T23:17:21.189Z,23648
2017-05-30T23:18:23.621Z,13048
2017-05-30T23:19:26.628Z,8408
2017-05-30T23:20:28.976Z,7936
2017-05-30T23:21:31.357Z,7804
2017-05-30T23:22:34.311Z,8604
2017-05-30T23:23:37.229Z,10240
2017-05-30T23:24:40.191Z,8796
2017-05-30T23:25:43.067Z,7548
2017-05-30T23:26:45.957Z,6468
2017-05-30T23:27:48.868Z,6148
2017-05-30T23:28:51.722Z,6664
2017-05-30T23:29:54.713Z,4972
2017-05-30T23:30:57.096Z,5664
2017-05-30T23:31:59.477Z,4500
2017-05-30T23:33:01.865Z,3684
2017-05-30T23:34:04.254Z,4636
2017-05-30T23:35:07.246Z,3796
2017-05-30T23:36:09.619Z,3376
2017-05-30T23:37:12.008Z,3772
2017-05-30T23:38:14.374Z,3164
2017-05-30T23:39:16.760Z,3176
2017-05-30T23:40:19.732Z,3624
2017-05-30T23:41:22.111Z,2248
2017-05-30T23:42:24.487Z,2704
2017-05-30T23:43:26.870Z,2308
2017-05-30T23:44:29.247Z,1540
2017-05-30T23:45:32.214Z,1560
2017-05-30T23:46:34.609Z,1408
2017-05-30T23:47:36.894Z,1148
2017-05-30T23:48:39.369Z,1000
2017-05-30T23:49:41.755Z,1128
2017-05-30T23:50:44.875Z,1140
2017-05-30T23:51:47.267Z,1192
2017-05-30T23:52:49.659Z,816
2017-05-30T23:53:52.024Z,584
2017-05-30T23:54:54.404Z,544
2017-05-30T23:55:57.376Z,616
2017-05-30T23:56:59.762Z,520
2017-05-30T23:58:02.141Z,352
2017-05-30T23:59:04.533Z,416
